Time;durP1;ratioP1;P1;durP2;ratioP2;P2;SDS_P1;SDS_P2;PMS_P1;PMS_P2;Temp;Humidity;BMP_temperature;BMP_pressure;BME280_temperature;BME280_humidity;BME280_pressure;Samples;Min_cycle;Max_cycle;Signal;HPM_P1;HPM_P2
2022/10/09 00:00:51;;;;;;;;;;;;;;;21.25;54.16;101219.28;7404620;19;1678;-59
2022/10/09 00:03:19;;;;;;;;;;;;;;;21.27;54.93;101219.16;7403267;19;1844;-58
2022/10/09 00:05:48;;;;;;;;;;;;;;;21.24;54.14;101197.91;7404062;19;1861;-59
2022/10/09 00:08:16;;;;;;;;;;;;;;;21.25;54.46;101213.06;7403892;19;1591;-59
2022/10/09 00:10:45;;;;;;;;;;;;;;;21.25;54.03;101196.94;7403666;19;1469;-59
2022/10/09 00:13:16;;;;;;;;;;;;;;;21.24;54.43;101197.91;7405314;19;1551;-59
2022/10/09 00:15:45;;;;;;;;;;;;;;;21.24;54.33;101198.75;7405500;19;1618;-59
2022/10/09 00:18:15;;;;;;;;;;;;;;;21.26;53.71;101201.31;7404939;19;1547;-59
2022/10/09 00:20:43;;;;;;;;;;;;;;;21.23;54.04;101204.28;7403773;19;1649;-59
2022/10/09 00:23:13;;;;;;;;;;;;;;;21.22;53.67;101197.19;7403495;19;1737;-59
2022/10/09 00:25:42;;;;;;;;;;;;;;;21.25;54.30;101211.22;7402021;19;1842;-71
2022/10/09 00:28:10;;;;;;;;;;;;;;;21.23;54.19;101206.97;7405912;19;1340;-72
2022/10/09 00:30:43;;;;;;;;;;;;;;;21.22;54.00;101199.88;7404574;19;1624;-70
2022/10/09 00:33:11;;;;;;;;;;;;;;;21.22;53.75;101202.56;7405292;19;1545;-70
2022/10/09 00:35:39;;;;;;;;;;;;;;;21.22;53.67;101194.50;7405441;19;1382;-70
2022/10/09 00:38:09;;;;;;;;;;;;;;;21.20;53.89;101196.47;7404689;19;1549;-69
2022/10/09 00:40:37;;;;;;;;;;;;;;;21.20;53.84;101193.78;7405893;19;1360;-70
2022/10/09 00:43:08;;;;;;;;;;;;;;;21.17;54.02;101196.75;7404702;19;1280;-70
2022/10/09 00:45:36;;;;;;;;;;;;;;;21.18;53.80;101187.72;7404182;19;1857;-70
2022/10/09 00:48:08;;;;;;;;;;;;;;;21.20;53.90;101191.94;7405646;19;1459;-70
2022/10/09 00:50:40;;;;;;;;;;;;;;;21.19;53.90;101194.81;7404112;19;1703;-70
2022/10/09 00:53:09;;;;;;;;;;;;;;;21.18;53.92;101185.03;7405603;19;1534;-70
2022/10/09 00:55:39;;;;;;;;;;;;;;;21.20;54.07;101207.25;7404706;19;1751;-71
2022/10/09 00:58:08;;;;;;;;;;;;;;;21.22;53.95;101189.13;7405518;19;1531;-70
2022/10/09 01:00:36;;;;;;;;;;;;;;;21.22;53.81;101194.50;7405321;19;1620;-71
2022/10/09 01:03:07;;;;;;;;;;;;;;;21.17;53.70;101188.69;7401622;19;1613;-71
2022/10/09 01:05:43;;;;;;;;;;;;;;;21.18;53.73;101207.38;7403451;19;1850;-70
2022/10/09 01:08:14;;;;;;;;;;;;;;;21.14;53.91;101192.50;7405181;19;1512;-70
2022/10/09 01:10:47;;;;;;;;;;;;;;;21.15;53.75;101198.72;7401419;19;1755;-70
2022/10/09 01:13:21;;;;;;;;;;;;;;;21.18;53.71;101198.47;7405281;19;1361;-71
2022/10/09 01:15:51;;;;;;;;;;;;;;;21.19;53.53;101208.25;7403536;19;1559;-70
2022/10/09 01:18:24;;;;;;;;;;;;;;;21.16;53.64;101200.44;7405161;19;1380;-70
2022/10/09 01:20:56;;;;;;;;;;;;;;;21.17;53.57;101212.88;7404001;19;1778;-71
2022/10/09 01:23:38;;;;;;;;;;;;;;;21.17;53.53;101204.81;7404638;19;1519;-70
2022/10/09 01:26:25;;;;;;;;;;;;;;;21.14;53.33;101199.72;7403255;19;1857;-71
2022/10/09 01:28:58;;;;;;;;;;;;;;;21.14;53.44;101199.72;7403763;19;1678;-71
2022/10/09 01:31:29;;;;;;;;;;;;;;;21.16;53.63;101200.44;7403684;19;1588;-70
2022/10/09 01:33:58;;;;;;;;;;;;;;;21.12;53.31;101197.19;7403247;19;1395;-71
2022/10/09 01:36:28;;;;;;;;;;;;;;;21.12;53.92;101196.34;7402806;19;1616;-71
2022/10/09 01:38:58;;;;;;;;;;;;;;;21.10;53.29;101199.16;7404359;19;1675;-71
2022/10/09 01:41:27;;;;;;;;;;;;;;;21.11;53.58;101206.25;7401555;19;1638;-71
2022/10/09 01:43:58;;;;;;;;;;;;;;;21.15;53.79;101206.78;7411065;19;1010;-71
2022/10/09 01:46:29;;;;;;;;;;;;;;;21.13;54.18;101203.41;7410026;19;1869;-71
2022/10/09 01:49:12;;;;;;;;;;;;;;;21.12;53.95;101196.34;7410931;19;1650;-71
2022/10/09 01:51:45;;;;;;;;;;;;;;;21.13;53.47;101192.63;7410210;19;1539;-71
2022/10/09 01:54:14;;;;;;;;;;;;;;;21.10;53.79;101201.00;7410673;19;1608;-71
2022/10/09 01:56:45;;;;;;;;;;;;;;;21.11;53.80;101205.38;7409337;19;1625;-71
2022/10/09 01:59:17;;;;;;;;;;;;;;;21.10;53.31;101201.84;7411360;19;1545;-71
2022/10/09 02:01:46;;;;;;;;;;;;;;;21.12;53.72;101201.72;7403023;19;1764;-71
2022/10/09 02:04:15;;;;;;;;;;;;;;;21.10;53.19;101206.38;7410361;19;1533;-70
2022/10/09 02:06:44;;;;;;;;;;;;;;;21.08;53.25;101200.28;7409412;19;1865;-71
2022/10/09 02:09:14;;;;;;;;;;;;;;;21.08;53.56;101208.34;7410079;19;1735;-71
2022/10/09 02:11:44;;;;;;;;;;;;;;;21.08;53.75;101202.97;7408959;19;1709;-71
2022/10/09 02:14:13;;;;;;;;;;;;;;;21.09;53.50;101204.66;7409248;19;1416;-71
2022/10/09 02:16:46;;;;;;;;;;;;;;;21.09;53.70;101199.28;7409767;19;1685;-71
2022/10/09 02:19:17;;;;;;;;;;;;;;;21.08;53.85;101206.50;7409634;19;1209;-71
2022/10/09 02:21:47;;;;;;;;;;;;;;;21.08;53.58;101205.66;7410285;19;1593;-71
2022/10/09 02:24:17;;;;;;;;;;;;;;;21.06;53.27;101197.72;7410103;19;1537;-71
2022/10/09 02:26:45;;;;;;;;;;;;;;;21.08;53.58;101203.81;7408744;19;1857;-71
2022/10/09 02:29:14;;;;;;;;;;;;;;;21.05;52.83;101191.50;7409335;19;1553;-70
2022/10/09 02:31:45;;;;;;;;;;;;;;;21.08;53.23;101192.22;7409643;19;1744;-71
2022/10/09 02:34:14;;;;;;;;;;;;;;;21.06;53.49;101206.66;7409294;19;1608;-71
2022/10/09 02:36:42;;;;;;;;;;;;;;;21.08;53.35;101219.13;7409189;19;1617;-71
2022/10/09 02:39:11;;;;;;;;;;;;;;;21.05;53.39;101204.97;7408849;19;1357;-71
2022/10/09 02:41:39;;;;;;;;;;;;;;;21.01;53.50;101197.31;7407440;19;1812;-70
2022/10/09 02:44:07;;;;;;;;;;;;;;;21.02;53.48;101202.53;7408428;19;1353;-71
2022/10/09 02:46:37;;;;;;;;;;;;;;;21.02;53.02;101209.75;7409231;19;1858;-71
2022/10/09 02:49:08;;;;;;;;;;;;;;;21.02;53.17;101225.88;7406929;19;1677;-71
2022/10/09 02:51:36;;;;;;;;;;;;;;;20.98;52.94;101203.81;7407880;19;1533;-71
2022/10/09 02:54:05;;;;;;;;;;;;;;;20.98;53.19;101209.19;7406349;19;1487;-71
2022/10/09 02:56:33;;;;;;;;;;;;;;;21.02;53.00;101205.22;7406505;19;1611;-71
2022/10/09 02:59:01;;;;;;;;;;;;;;;21.02;52.99;101196.31;7406392;19;1319;-71
2022/10/09 03:01:29;;;;;;;;;;;;;;;21.03;52.81;101201.56;7406927;19;1782;-71
2022/10/09 03:03:58;;;;;;;;;;;;;;;21.05;52.96;101198.75;7407714;19;1438;-71
2022/10/09 03:06:30;;;;;;;;;;;;;;;21.05;53.13;101214.88;7406951;19;1843;-71
2022/10/09 03:08:59;;;;;;;;;;;;;;;21.06;52.87;101205.81;7406367;19;1438;-71
2022/10/09 03:11:27;;;;;;;;;;;;;;;21.02;52.89;101201.69;7405958;19;1543;-70
2022/10/09 03:13:57;;;;;;;;;;;;;;;20.99;53.08;101205.50;7408644;19;1355;-71
2022/10/09 03:16:26;;;;;;;;;;;;;;;20.98;53.16;101214.56;7407119;19;1633;-75
2022/10/09 03:18:55;;;;;;;;;;;;;;;21.09;52.93;101201.97;7407016;19;1267;-70
2022/10/09 03:21:24;;;;;;;;;;;;;;;21.06;51.97;101205.81;7407316;19;1450;-72
2022/10/09 03:23:55;;;;;;;;;;;;;;;20.91;48.59;101217.94;7408740;19;1332;-72
2022/10/09 03:26:24;;;;;;;;;;;;;;;20.69;47.00;101213.63;7407817;19;1860;-71
2022/10/09 03:28:53;;;;;;;;;;;;;;;20.56;46.97;101208.44;7407204;19;1774;-71
2022/10/09 03:31:23;;;;;;;;;;;;;;;20.70;50.87;101204.56;7406266;19;1656;-71
2022/10/09 03:33:51;;;;;;;;;;;;;;;20.80;51.76;101203.59;7406380;19;1455;-71
2022/10/09 03:36:20;;;;;;;;;;;;;;;20.81;51.81;101208.00;7406790;19;1383;-71
2022/10/09 03:38:48;;;;;;;;;;;;;;;20.88;51.89;101208.31;7406594;19;1298;-71
2022/10/09 03:41:19;;;;;;;;;;;;;;;20.87;52.06;101212.00;7406655;19;1320;-71
2022/10/09 03:43:47;;;;;;;;;;;;;;;20.90;52.79;101206.34;7408314;19;1545;-71
2022/10/09 03:46:16;;;;;;;;;;;;;;;20.89;52.44;101204.66;7406899;19;1304;-71
2022/10/09 03:48:44;;;;;;;;;;;;;;;20.89;52.77;101204.66;7405334;19;1863;-71
2022/10/09 03:51:12;;;;;;;;;;;;;;;20.92;53.40;101209.72;7406689;19;1545;-71
2022/10/09 03:53:40;;;;;;;;;;;;;;;20.91;52.77;101207.16;7405508;19;1513;-71
2022/10/09 03:56:09;;;;;;;;;;;;;;;20.93;52.42;101206.06;7405915;19;1372;-62
2022/10/09 03:58:40;;;;;;;;;;;;;;;21.04;52.89;101211.31;7405083;19;1388;-65
2022/10/09 04:01:08;;;;;;;;;;;;;;;21.06;53.62;101205.81;7405371;19;1644;-74
2022/10/09 04:03:36;;;;;;;;;;;;;;;21.07;53.37;101215.59;7406726;19;1740;-67
2022/10/09 04:06:05;;;;;;;;;;;;;;;21.17;53.47;101205.69;7402049;19;1728;-70
2022/10/09 04:08:33;;;;;;;;;;;;;;;21.23;54.27;101198.91;7404810;19;1857;-73
2022/10/09 04:11:02;;;;;;;;;;;;;;;21.10;54.38;101206.38;7404843;19;1556;-74
2022/10/09 04:13:31;;;;;;;;;;;;;;;21.01;54.13;101216.97;7405691;19;1554;-72
2022/10/09 04:16:01;;;;;;;;;;;;;;;20.99;54.43;101224.34;7405659;19;1403;-72
2022/10/09 04:18:30;;;;;;;;;;;;;;;20.97;54.35;101212.88;7406144;19;1269;-72
2022/10/09 04:20:58;;;;;;;;;;;;;;;20.93;54.02;101227.56;7405671;19;1343;-73
2022/10/09 04:23:27;;;;;;;;;;;;;;;20.95;54.60;101222.91;7405801;19;1569;-72
2022/10/09 04:25:57;;;;;;;;;;;;;;;20.95;54.27;101220.22;7406158;19;1705;-72
2022/10/09 04:28:25;;;;;;;;;;;;;;;20.93;54.21;101224.88;7405114;19;1853;-72
2022/10/09 04:30:53;;;;;;;;;;;;;;;20.92;54.20;101225.03;7405384;19;1319;-72
2022/10/09 04:33:24;;;;;;;;;;;;;;;20.94;54.07;101214.97;7405819;19;1339;-72
2022/10/09 04:35:53;;;;;;;;;;;;;;;20.91;54.59;101210.72;7406402;19;1763;-72
2022/10/09 04:38:22;;;;;;;;;;;;;;;20.88;53.87;101211.00;7404649;19;1442;-72
2022/10/09 04:40:57;;;;;;;;;;;;;;;20.91;54.34;101220.63;7404225;19;1399;-72
2022/10/09 04:43:25;;;;;;;;;;;;;;;20.89;53.76;101230.66;7406602;19;1211;-72
2022/10/09 04:45:54;;;;;;;;;;;;;;;20.89;54.37;101230.66;7405528;19;1371;-72
2022/10/09 04:48:26;;;;;;;;;;;;;;;20.91;53.76;101237.63;7402757;19;1829;-73
2022/10/09 04:50:54;;;;;;;;;;;;;;;20.91;53.72;101237.63;7403939;19;1681;-73
2022/10/09 04:53:22;;;;;;;;;;;;;;;20.93;53.50;101238.34;7404885;19;1344;-72
2022/10/09 04:55:50;;;;;;;;;;;;;;;20.91;53.61;101232.25;7403530;19;1331;-73
2022/10/09 04:58:19;;;;;;;;;;;;;;;20.94;53.43;101234.63;7405088;19;1340;-74
2022/10/09 05:00:47;;;;;;;;;;;;;;;20.92;53.52;101231.25;7404812;19;1328;-72
2022/10/09 05:03:16;;;;;;;;;;;;;;;20.93;53.38;101232.97;7402689;19;1505;-73
2022/10/09 05:05:47;;;;;;;;;;;;;;;20.96;53.44;101243.41;7404014;19;1340;-73
2022/10/09 05:08:15;;;;;;;;;;;;;;;20.95;53.21;101241.72;7401211;19;1862;-73
2022/10/09 05:10:43;;;;;;;;;;;;;;;20.95;53.14;101235.47;7404874;19;1647;-74
2022/10/09 05:13:12;;;;;;;;;;;;;;;20.96;53.07;101239.88;7404422;19;1354;-72
2022/10/09 05:15:40;;;;;;;;;;;;;;;20.97;53.45;101260.38;7405087;19;1403;-72
2022/10/09 05:18:08;;;;;;;;;;;;;;;20.96;53.12;101259.56;7411159;19;1236;-73
2022/10/09 05:20:41;;;;;;;;;;;;;;;20.98;52.95;101262.94;7411595;19;1409;-72
2022/10/09 05:23:12;;;;;;;;;;;;;;;20.99;53.02;101251.22;7408880;19;1308;-72
2022/10/09 05:25:40;;;;;;;;;;;;;;;21.03;52.97;101270.63;7411715;19;1476;-72
2022/10/09 05:28:09;;;;;;;;;;;;;;;21.05;52.98;101268.66;7408566;19;1863;-74
2022/10/09 05:30:41;;;;;;;;;;;;;;;21.04;53.05;101251.66;7411264;19;1398;-72
2022/10/09 05:33:10;;;;;;;;;;;;;;;21.08;53.56;101283.66;7410471;19;1354;-73
2022/10/09 05:35:38;;;;;;;;;;;;;;;21.05;53.51;101264.13;7409831;19;1506;-72
2022/10/09 05:38:06;;;;;;;;;;;;;;;21.08;53.42;101268.38;7408456;19;1315;-72
2022/10/09 05:40:38;;;;;;;;;;;;;;;21.10;53.63;101287.06;7409832;19;1317;-72
2022/10/09 05:43:07;;;;;;;;;;;;;;;21.25;53.90;101288.38;7407775;19;1711;-71
2022/10/09 05:45:37;;;;;;;;;;;;;;;21.29;54.04;101287.13;7409241;19;1361;-56
2022/10/09 05:48:06;;;;;;;;;;;;;;;21.31;53.71;101277.06;7405378;19;1842;-66
2022/10/09 05:50:34;;;;;;;;;;;;;;;21.34;53.39;101289.38;7408395;19;1643;-68
2022/10/09 05:53:02;;;;;;;;;;;;;;;21.41;52.18;101295.94;7405258;19;1263;-62
2022/10/09 05:55:31;;;;;;;;;;;;;;;21.44;52.82;101295.66;7404636;19;1455;-70
2022/10/09 05:58:02;;;;;;;;;;;;;;;21.52;52.57;101292.28;7403987;19;1370;-70
2022/10/09 06:00:30;;;;;;;;;;;;;;;21.48;51.81;101299.78;7406790;19;1410;-71
2022/10/09 06:02:58;;;;;;;;;;;;;;;21.50;50.87;101308.56;7405283;19;1474;-71
2022/10/09 06:05:27;;;;;;;;;;;;;;;21.55;50.97;101294.72;7410163;19;1636;-70
2022/10/09 06:07:55;;;;;;;;;;;;;;;21.62;51.90;101303.91;7408727;19;1858;-59
2022/10/09 06:10:23;;;;;;;;;;;;;;;21.61;50.89;101312.97;7408735;19;1543;-59
2022/10/09 06:12:51;;;;;;;;;;;;;;;21.65;51.57;101301.78;7406347;19;1311;-70
2022/10/09 06:15:23;;;;;;;;;;;;;;;21.82;51.73;101302.91;7408086;19;1783;-61
2022/10/09 06:17:51;;;;;;;;;;;;;;;21.92;52.12;101324.47;7405956;19;1783;-58
2022/10/09 06:20:19;;;;;;;;;;;;;;;22.04;52.01;101309.03;7405762;19;1545;-58
2022/10/09 06:22:48;;;;;;;;;;;;;;;22.13;52.08;101313.56;7403864;19;1266;-59
2022/10/09 06:25:16;;;;;;;;;;;;;;;22.19;52.32;101323.75;7406158;19;1311;-77
2022/10/09 06:27:44;;;;;;;;;;;;;;;22.33;53.02;101329.75;7400023;19;1863;-59
2022/10/09 06:30:13;;;;;;;;;;;;;;;22.51;52.43;101327.16;7402324;19;1903;-62
2022/10/09 06:32:44;;;;;;;;;;;;;;;22.55;52.46;101333.97;7401328;19;1542;-59
2022/10/09 06:35:13;;;;;;;;;;;;;;;22.59;53.27;101329.97;7407929;19;1882;-67
2022/10/09 06:37:41;;;;;;;;;;;;;;;22.55;53.30;101318.63;7407063;19;1336;-60
2022/10/09 06:40:10;;;;;;;;;;;;;;;22.51;53.77;101337.94;7405990;19;1231;-58
2022/10/09 06:42:38;;;;;;;;;;;;;;;22.53;53.84;101352.97;7407899;19;1653;-70
2022/10/09 06:45:07;;;;;;;;;;;;;;;22.55;53.89;101336.66;7406665;19;1419;-75
2022/10/09 06:47:36;;;;;;;;;;;;;;;22.53;53.83;101328.72;7409157;19;1844;-60
2022/10/09 06:50:07;;;;;;;;;;;;;;;22.58;53.86;101323.75;7406532;19;1320;-57
2022/10/09 06:52:36;;;;;;;;;;;;;;;22.14;52.33;101328.72;7407134;19;1473;-67
2022/10/09 06:55:04;;;;;;;;;;;;;;;22.26;53.34;101325.91;7406819;19;1815;-58
2022/10/09 06:57:32;;;;;;;;;;;;;;;22.51;53.23;101322.63;7408079;19;1612;-59
2022/10/09 07:00:01;;;;;;;;;;;;;;;22.57;53.38;101324.72;7406926;19;1458;-67
2022/10/09 07:02:29;;;;;;;;;;;;;;;22.67;53.12;101326.56;7405567;19;1885;-70
2022/10/09 07:04:57;;;;;;;;;;;;;;;22.01;51.27;101328.19;7406237;19;1359;-58
2022/10/09 07:07:28;;;;;;;;;;;;;;;22.31;54.01;101337.13;7407346;19;1443;-58
2022/10/09 07:09:57;;;;;;;;;;;;;;;22.60;53.03;101332.53;7405947;19;1845;-76
2022/10/09 07:12:25;;;;;;;;;;;;;;;22.59;53.21;101322.72;7406001;19;1586;-57
2022/10/09 07:14:54;;;;;;;;;;;;;;;22.59;53.40;101330.81;7406686;19;1666;-58
2022/10/09 07:17:22;;;;;;;;;;;;;;;22.61;53.39;101312.66;7406314;19;1260;-57
2022/10/09 07:19:51;;;;;;;;;;;;;;;22.48;53.28;101327.44;7405479;19;1455;-57
2022/10/09 07:22:19;;;;;;;;;;;;;;;22.61;53.02;101322.59;7404829;19;1450;-57
2022/10/09 07:24:50;;;;;;;;;;;;;;;22.70;53.51;101320.84;7406401;19;1324;-71
2022/10/09 07:27:18;;;;;;;;;;;;;;;22.67;53.21;101329.25;7405344;19;1464;-60
2022/10/09 07:29:47;;;;;;;;;;;;;;;22.70;53.19;101334.34;7414980;19;1853;-64
2022/10/09 07:32:16;;;;;;;;;;;;;;;22.74;53.34;101342.00;7415469;19;1784;-57
2022/10/09 07:34:45;;;;;;;;;;;;;;;22.75;53.81;101329.38;7414269;19;1248;-60
2022/10/09 07:37:13;;;;;;;;;;;;;;;22.73;53.79;101342.16;7409480;19;1458;-58
2022/10/09 07:39:42;;;;;;;;;;;;;;;22.83;53.90;101342.97;7403380;19;873;-59
2022/10/09 07:42:13;;;;;;;;;;;;;;;22.83;54.36;101341.09;7403301;19;1194;-57
2022/10/09 07:44:41;;;;;;;;;;;;;;;22.92;54.80;101339.41;7404239;19;1706;-58
2022/10/09 07:47:09;;;;;;;;;;;;;;;22.84;55.36;101340.13;7405362;19;1625;-60
2022/10/09 07:49:38;;;;;;;;;;;;;;;22.79;55.66;101336.16;7404899;19;1844;-59
2022/10/09 07:52:06;;;;;;;;;;;;;;;22.82;55.37;101335.88;7406792;19;1637;-59
2022/10/09 07:54:34;;;;;;;;;;;;;;;22.87;55.55;101325.50;7406495;19;1425;-60
2022/10/09 07:57:02;;;;;;;;;;;;;;;22.90;55.34;101338.69;7405111;19;1490;-59
2022/10/09 07:59:33;;;;;;;;;;;;;;;22.91;55.26;101348.47;7404051;19;1613;-59
2022/10/09 08:02:02;;;;;;;;;;;;;;;22.87;55.48;101332.75;7402665;19;1403;-58
2022/10/09 08:04:30;;;;;;;;;;;;;;;22.83;56.26;101332.19;7404150;19;1270;-59
2022/10/09 08:06:59;;;;;;;;;;;;;;;22.93;55.90;101334.84;7403748;19;1518;-61
2022/10/09 08:09:30;;;;;;;;;;;;;;;22.94;56.67;101331.13;7403614;19;1873;-60
2022/10/09 08:11:58;;;;;;;;;;;;;;;22.90;57.11;101336.00;7402677;19;1666;-58
2022/10/09 08:14:27;;;;;;;;;;;;;;;22.87;56.66;101333.56;7404490;19;1350;-59
2022/10/09 08:16:58;;;;;;;;;;;;;;;22.92;56.11;101336.69;7401364;19;1424;-59
2022/10/09 08:19:26;;;;;;;;;;;;;;;22.16;50.89;101337.53;7401134;19;1266;-57
2022/10/09 08:21:54;;;;;;;;;;;;;;;21.87;51.59;101337.53;7404202;19;1327;-57
2022/10/09 08:24:23;;;;;;;;;;;;;;;21.77;51.31;101339.34;7405132;19;1344;-57
2022/10/09 08:26:51;;;;;;;;;;;;;;;21.77;51.31;101323.19;7404101;19;1951;-57
2022/10/09 08:29:20;;;;;;;;;;;;;;;21.73;51.42;101311.84;7402068;19;1860;-57
2022/10/09 08:31:48;;;;;;;;;;;;;;;21.74;51.54;101334.25;7397773;19;1377;-56
2022/10/09 08:34:19;;;;;;;;;;;;;;;21.63;50.96;101313.69;7403173;19;1391;-57
2022/10/09 08:36:48;;;;;;;;;;;;;;;21.55;50.91;101340.47;7404304;19;1607;-57
2022/10/09 08:39:16;;;;;;;;;;;;;;;21.53;50.63;101331.66;7405000;19;1116;-55
2022/10/09 08:41:46;;;;;;;;;;;;;;;21.55;50.94;101317.09;7401014;19;1701;-56
2022/10/09 08:44:17;;;;;;;;;;;;;;;21.49;50.80;101333.78;7401588;19;1338;-56
2022/10/09 08:46:51;;;;;;;;;;;;;;;21.49;50.80;101324.84;7399468;19;1730;-57
2022/10/09 08:49:25;;;;;;;;;;;;;;;21.55;50.82;101325.16;7400216;19;1850;-57
2022/10/09 08:51:54;;;;;;;;;;;;;;;21.55;50.84;101330.53;7406151;19;1366;-57
2022/10/09 08:54:27;;;;;;;;;;;;;;;21.54;50.66;101311.81;7411233;19;1204;-57
2022/10/09 08:56:55;;;;;;;;;;;;;;;21.48;50.41;101324.00;7411101;19;1674;-57
2022/10/09 08:59:24;;;;;;;;;;;;;;;21.45;50.71;101319.75;7409572;19;1692;-57
2022/10/09 09:02:00;;;;;;;;;;;;;;;21.50;50.87;101321.16;7409279;19;1558;-57
2022/10/09 09:04:47;;;;;;;;;;;;;;;21.55;50.61;101329.69;7411753;19;1336;-57
2022/10/09 09:07:23;;;;;;;;;;;;;;;21.45;50.57;101330.50;7407016;19;1862;-56
2022/10/09 09:09:55;;;;;;;;;;;;;;;21.49;50.75;101330.22;7410662;19;1845;-56
2022/10/09 09:12:30;;;;;;;;;;;;;;;21.45;50.78;101321.59;7410576;19;1518;-56
2022/10/09 09:15:06;;;;;;;;;;;;;;;21.53;50.85;101316.38;7408687;19;1581;-57
2022/10/09 09:17:40;;;;;;;;;;;;;;;21.56;50.69;101323.31;7409635;19;1399;-57
2022/10/09 09:20:16;;;;;;;;;;;;;;;21.59;50.98;101321.19;7409434;19;1596;-57
2022/10/09 09:22:47;;;;;;;;;;;;;;;21.62;51.04;101320.06;7409325;19;1553;-57
2022/10/09 09:25:19;;;;;;;;;;;;;;;21.60;50.91;101322.03;7410900;19;1534;-57
2022/10/09 09:27:47;;;;;;;;;;;;;;;21.57;51.00;101322.31;7407919;19;1790;-57
2022/10/09 09:30:18;;;;;;;;;;;;;;;21.63;51.23;101325.31;7406501;19;1853;-57
2022/10/09 09:32:52;;;;;;;;;;;;;;;21.60;51.10;101308.56;7406374;19;1707;-57
2022/10/09 09:35:27;;;;;;;;;;;;;;;21.60;51.12;101313.97;7405853;19;1354;-56
2022/10/09 09:37:55;;;;;;;;;;;;;;;21.69;51.09;101312.28;7407594;19;1239;-57
2022/10/09 09:40:25;;;;;;;;;;;;;;;21.72;50.97;101304.75;7409266;19;1202;-57
2022/10/09 09:42:55;;;;;;;;;;;;;;;21.69;51.28;101313.13;7411406;19;912;-57
2022/10/09 09:45:25;;;;;;;;;;;;;;;21.75;50.79;101319.81;7410558;19;1570;-56
2022/10/09 09:47:56;;;;;;;;;;;;;;;21.78;51.17;101312.28;7409038;19;1867;-57
2022/10/09 09:50:36;;;;;;;;;;;;;;;21.77;50.87;101315.97;7406253;19;1841;-57
2022/10/09 09:53:06;;;;;;;;;;;;;;;21.80;50.80;101312.97;7405879;19;1578;-57
2022/10/09 09:55:35;;;;;;;;;;;;;;;21.83;50.93;101314.56;7405776;19;1252;-56
2022/10/09 09:58:05;;;;;;;;;;;;;;;21.93;50.91;101304.66;7408391;19;1783;-57
2022/10/09 10:00:33;;;;;;;;;;;;;;;22.04;50.76;101311.72;7405439;19;1703;-57
2022/10/09 10:03:13;;;;;;;;;;;;;;;22.00;50.39;101303.09;7401411;19;1668;-57
2022/10/09 10:05:44;;;;;;;;;;;;;;;22.00;51.29;101303.09;7404927;19;1449;-58
2022/10/09 10:08:17;;;;;;;;;;;;;;;22.15;50.37;101316.13;7405625;19;1426;-57
2022/10/09 10:10:47;;;;;;;;;;;;;;;22.14;50.71;101296.38;7403924;19;1863;-57
2022/10/09 10:13:17;;;;;;;;;;;;;;;22.22;50.89;101306.44;7406787;19;1406;-57
2022/10/09 10:15:50;;;;;;;;;;;;;;;22.39;50.60;101291.44;7402018;19;1357;-57
2022/10/09 10:18:20;;;;;;;;;;;;;;;22.28;49.43;101311.28;7407616;19;1180;-57
2022/10/09 10:20:52;;;;;;;;;;;;;;;22.20;50.15;101295.84;7406721;19;1775;-57
2022/10/09 10:23:24;;;;;;;;;;;;;;;22.21;50.95;101299.38;7407218;19;1600;-56
2022/10/09 10:25:54;;;;;;;;;;;;;;;22.16;50.90;101289.06;7407020;19;1334;-56
2022/10/09 10:28:26;;;;;;;;;;;;;;;22.18;49.85;101289.75;7408076;19;1519;-57
2022/10/09 10:30:56;;;;;;;;;;;;;;;22.24;50.06;101278.44;7403096;19;1849;-57
2022/10/09 10:33:28;;;;;;;;;;;;;;;22.18;49.67;101284.38;7406692;19;1314;-56
2022/10/09 10:36:00;;;;;;;;;;;;;;;22.35;49.97;101295.41;7407577;19;1628;-56
2022/10/09 10:38:31;;;;;;;;;;;;;;;22.31;49.53;101289.47;7406741;19;1763;-57
2022/10/09 10:41:06;;;;;;;;;;;;;;;22.26;49.11;101290.88;7405270;19;1594;-56
2022/10/09 10:43:37;;;;;;;;;;;;;;;22.30;48.61;101281.53;7407797;19;1343;-56
2022/10/09 10:46:10;;;;;;;;;;;;;;;22.22;48.24;101285.78;7406524;19;1345;-57
2022/10/09 10:48:41;;;;;;;;;;;;;;;22.29;48.38;101279.84;7407561;19;1608;-56
2022/10/09 10:51:21;;;;;;;;;;;;;;;22.17;48.41;101277.25;7404563;19;1845;-56
2022/10/09 10:53:54;;;;;;;;;;;;;;;22.21;48.87;101272.44;7406416;19;1319;-56
2022/10/09 10:56:28;;;;;;;;;;;;;;;22.21;48.62;101267.91;7407137;19;1426;-56
2022/10/09 10:59:01;;;;;;;;;;;;;;;22.29;47.78;101269.06;7406516;19;1622;-55
2022/10/09 11:01:36;;;;;;;;;;;;;;;22.24;48.55;101256.00;7405327;19;1614;-55
2022/10/09 11:04:22;;;;;;;;;;;;;;;22.27;48.52;101265.66;7406033;19;1704;-56
2022/10/09 11:06:58;;;;;;;;;;;;;;;22.31;48.37;101259.81;7403645;19;1613;-55
2022/10/09 11:09:30;;;;;;;;;;;;;;;22.51;48.45;101257.94;7405775;19;1853;-56
2022/10/09 11:12:03;;;;;;;;;;;;;;;22.50;48.40;101261.63;7407282;19;1654;-56
2022/10/09 11:14:36;;;;;;;;;;;;;;;22.44;48.89;101240.63;7405683;19;1538;-56
2022/10/09 11:17:11;;;;;;;;;;;;;;;22.54;49.12;101254.09;7404762;19;1518;-56
2022/10/09 11:19:49;;;;;;;;;;;;;;;22.42;48.96;101248.00;7406619;19;1461;-55
2022/10/09 11:22:28;;;;;;;;;;;;;;;22.43;49.14;101255.97;7405977;19;1484;-55
2022/10/09 11:25:05;;;;;;;;;;;;;;;22.38;49.95;101252.00;7404034;19;1585;-55
2022/10/09 11:27:37;;;;;;;;;;;;;;;22.24;50.14;101231.75;7405128;19;1658;-56
2022/10/09 11:30:07;;;;;;;;;;;;;;;22.45;49.58;101242.34;7405352;19;1861;-55
2022/10/09 11:32:38;;;;;;;;;;;;;;;22.42;49.75;101237.25;7403460;19;1423;-55
2022/10/09 11:35:08;;;;;;;;;;;;;;;22.52;48.97;101232.69;7404633;19;1350;-55
2022/10/09 11:37:41;;;;;;;;;;;;;;;22.59;49.19;101239.16;7406224;19;1629;-57
2022/10/09 11:40:15;;;;;;;;;;;;;;;22.44;49.91;101241.50;7404534;19;1311;-56
2022/10/09 11:42:43;;;;;;;;;;;;;;;22.42;50.18;101221.06;7404582;19;1402;-58
2022/10/09 11:45:20;;;;;;;;;;;;;;;22.47;50.28;101232.28;7401936;19;1567;-55
2022/10/09 11:47:55;;;;;;;;;;;;;;;22.34;50.23;101207.47;7401762;19;1303;-57
2022/10/09 11:50:36;;;;;;;;;;;;;;;22.46;50.37;101227.03;7403078;19;1860;-54
2022/10/09 11:53:10;;;;;;;;;;;;;;;22.39;50.62;101226.78;7404109;19;1303;-55
2022/10/09 11:55:39;;;;;;;;;;;;;;;22.37;50.46;101223.38;7403550;19;1316;-55
2022/10/09 11:58:13;;;;;;;;;;;;;;;22.52;49.84;101224.59;7405356;19;1375;-55
2022/10/09 12:00:42;;;;;;;;;;;;;;;22.45;50.44;101226.19;7404610;19;1378;-56
2022/10/09 12:03:25;;;;;;;;;;;;;;;22.40;50.03;101221.25;7403513;19;1424;-55
2022/10/09 12:05:53;;;;;;;;;;;;;;;22.35;50.17;101234.28;7401856;19;1427;-55
2022/10/09 12:08:29;;;;;;;;;;;;;;;22.34;50.05;101231.72;7403271;19;1344;-56
2022/10/09 12:10:59;;;;;;;;;;;;;;;22.27;49.63;101238.72;7403175;19;1853;-55
2022/10/09 12:13:33;;;;;;;;;;;;;;;22.27;50.58;101241.41;7404597;19;1265;-55
2022/10/09 12:16:01;;;;;;;;;;;;;;;22.27;50.88;101226.09;7404284;19;1647;-56
2022/10/09 12:18:31;;;;;;;;;;;;;;;22.26;50.32;101237.00;7404307;19;1560;-55
2022/10/09 12:21:02;;;;;;;;;;;;;;;22.27;50.32;101238.72;7405215;19;1533;-55
2022/10/09 12:23:34;;;;;;;;;;;;;;;22.23;49.96;101232.75;7403344;19;1515;-55
2022/10/09 12:26:03;;;;;;;;;;;;;;;22.23;50.10;101230.03;7402705;19;1636;-55
2022/10/09 12:28:36;;;;;;;;;;;;;;;22.38;50.31;101225.06;7403576;19;1554;-55
2022/10/09 12:31:06;;;;;;;;;;;;;;;22.36;51.17;101240.53;7401993;19;1853;-57
2022/10/09 12:33:37;;;;;;;;;;;;;;;22.39;51.41;101232.16;7404915;19;1546;-57
2022/10/09 12:36:07;;;;;;;;;;;;;;;22.28;51.32;101224.25;7404217;19;1237;-56
2022/10/09 12:38:38;;;;;;;;;;;;;;;22.15;50.35;101230.75;7402889;19;1344;-55
2022/10/09 12:41:08;;;;;;;;;;;;;;;22.15;50.77;101238.00;7404396;19;1550;-56
2022/10/09 12:43:36;;;;;;;;;;;;;;;22.05;50.57;101222.69;7403289;19;1594;-55
2022/10/09 12:46:05;;;;;;;;;;;;;;;22.07;50.91;101225.25;7398738;19;1462;-55
2022/10/09 12:48:37;;;;;;;;;;;;;;;22.04;51.20;101212.94;7403779;19;1628;-56
2022/10/09 12:51:15;;;;;;;;;;;;;;;22.01;50.57;101220.44;7402651;19;1831;-56
2022/10/09 12:53:50;;;;;;;;;;;;;;;22.04;50.78;101220.16;7403746;19;1373;-55
2022/10/09 12:56:22;;;;;;;;;;;;;;;22.01;50.83;101217.75;7403272;19;1629;-55
2022/10/09 12:58:51;;;;;;;;;;;;;;;22.02;50.68;101225.69;7403156;19;1644;-56
2022/10/09 13:01:20;;;;;;;;;;;;;;;21.99;50.63;101222.44;7403340;19;1625;-55
2022/10/09 13:03:54;;;;;;;;;;;;;;;22.02;50.45;101222.13;7403089;19;1344;-55